Time;durP1;ratioP1;P1;durP2;ratioP2;P2;SDS_P1;SDS_P2;PMS_P1;PMS_P2;Temp;Humidity;BMP_temperature;BMP_pressure;BME280_temperature;BME280_humidity;BME280_pressure;Samples;Min_cycle;Max_cycle;Signal;HPM_P1;HPM_P2
2023/11/09 00:00:15;;;;;;;;;;;;;;;;;;5045246;28;4515;-70
2023/11/09 00:02:40;;;;;;;;;;;;;;;;;;5093234;28;1269;-68
2023/11/09 00:05:06;;;;;;;;;;;;;;;;;;5091559;28;4590;-69
2023/11/09 00:07:31;;;;;;;;;;;;;;;;;;5092326;28;4431;-69
2023/11/09 00:09:57;;;;;;;;;;;;;;;;;;5074179;28;4614;-70
2023/11/09 00:12:24;;;;;;;;;;;;;;;;;;5097303;28;4657;-70
2023/11/09 00:14:49;;;;;;;;;;;;;;;;;;5089913;28;1336;-70
2023/11/09 00:17:15;;;;;;;;;;;;;;;;;;5084473;28;4993;-68
2023/11/09 00:19:40;;;;;;;;;;;;;;;;;;5088137;28;4970;-68
2023/11/09 00:22:05;;;;;;;;;;;;;;;;;;5071775;28;4874;-69
2023/11/09 00:24:31;;;;;;;;;;;;;;;;;;5073022;28;4966;-69
2023/11/09 00:26:57;;;;;;;;;;;;;;;;;;5075691;28;1918;-68
2023/11/09 00:29:23;;;;;;;;;;;;;;;;;;5077728;28;4853;-67
2023/11/09 00:31:49;;;;;;;;;;;;;;;;;;5080075;28;4416;-65
2023/11/09 00:34:14;;;;;;;;;;;;;;;;;;5059701;28;5059;-69
2023/11/09 00:36:40;;;;;;;;;;;;;;;;;;5078766;28;5236;-70
2023/11/09 00:39:06;;;;;;;;;;;;;;;;;;5076873;28;5585;-69
2023/11/09 00:41:33;;;;;;;;;;;;;;;;;;5073968;28;1222;-70
2023/11/09 00:43:58;;;;;;;;;;;;;;;;;;5071405;28;5052;-70
2023/11/09 00:46:32;;;;;;;;;;;;;;;;;;5048920;28;5064;-70
2023/11/09 00:48:57;;;;;;;;;;;;;;;;;;5043889;28;5128;-69
2023/11/09 00:51:22;;;;;;;;;;;;;;;;;;5075282;28;4514;-70
2023/11/09 00:53:48;;;;;;;;;;;;;;;;;;5075612;28;1070;-69
2023/11/09 00:56:14;;;;;;;;;;;;;;;;;;5082823;28;4390;-68
2023/11/09 00:58:40;;;;;;;;;;;;;;;;;;5053036;28;4999;-69
2023/11/09 01:01:05;;;;;;;;;;;;;;;;;;5055065;28;4651;-70
2023/11/09 01:06:33;;;;;;;;;;;;;;;;;;5072574;28;5241;-70
2023/11/09 01:08:59;;;;;;;;;;;;;;;;;;5071852;28;4719;-69
2023/11/09 01:11:24;;;;;;;;;;;;;;;;;;5071194;28;965;-68
2023/11/09 01:13:52;;;;;;;;;;;;;;;;;;5073528;28;4885;-66
2023/11/09 01:22:57;;;;;;;;;;;;;;;;;;5073750;28;4493;-69
2023/11/09 01:28:25;;;;;;;;;;;;;;;;;;5069430;28;4655;-70
2023/11/09 01:30:59;;;;;;;;;;;;;;;;;;5076047;28;5005;-70
2023/11/09 01:33:24;;;;;;;;;;;;;;;;;;5085058;28;5065;-70
2023/11/09 01:35:50;;;;;;;;;;;;;;;;;;5054638;28;1056;-70
2023/11/09 01:38:21;;;;;;;;;;;;;;;;;;5068133;28;4466;-69
2023/11/09 01:40:53;;;;;;;;;;;;;;;;;;5080357;28;4886;-70
2023/11/09 01:43:18;;;;;;;;;;;;;;;;;;5065039;28;4526;-68
2023/11/09 01:45:45;;;;;;;;;;;;;;;;;;5087360;28;4985;-69
2023/11/09 01:48:11;;;;;;;;;;;;;;;;;;5070545;28;4555;-70
2023/11/09 01:50:37;;;;;;;;;;;;;;;;;;5081040;28;1112;-66
2023/11/09 01:53:20;;;;;;;;;;;;;;;;;;5065689;28;5091;-70
2023/11/09 01:55:46;;;;;;;;;;;;;;;;;;5089072;28;5521;-70
2023/11/09 01:58:11;;;;;;;;;;;;;;;;;;5085548;28;5043;-70
2023/11/09 02:00:41;;;;;;;;;;;;;;;;;;5060302;28;4866;-69
2023/11/09 02:03:06;;;;;;;;;;;;;;;;;;5060471;28;4601;-69
2023/11/09 02:05:33;;;;;;;;;;;;;;;;;;5061622;28;1209;-69
2023/11/09 02:08:05;;;;;;;;;;;;;;;;;;5084794;28;4546;-69
2023/11/09 02:10:31;;;;;;;;;;;;;;;;;;5090765;28;4435;-68
2023/11/09 02:12:58;;;;;;;;;;;;;;;;;;5089976;28;5099;-66
2023/11/09 02:15:24;;;;;;;;;;;;;;;;;;5078339;28;5169;-70
2023/11/09 02:20:52;;;;;;;;;;;;;;;;;;5071524;28;4833;-69
2023/11/09 02:23:21;;;;;;;;;;;;;;;;;;5101010;28;1032;-69
2023/11/09 02:25:46;;;;;;;;;;;;;;;;;;5065344;28;1169;-69
2023/11/09 02:28:12;;;;;;;;;;;;;;;;;;5089764;28;5221;-69
2023/11/09 02:30:38;;;;;;;;;;;;;;;;;;5085943;28;4753;-70
2023/11/09 02:33:04;;;;;;;;;;;;;;;;;;5071172;28;5251;-69
2023/11/09 02:35:30;;;;;;;;;;;;;;;;;;5062380;28;1358;-70
2023/11/09 02:38:11;;;;;;;;;;;;;;;;;;5049645;28;4633;-69
2023/11/09 02:40:36;;;;;;;;;;;;;;;;;;5069702;28;4970;-70
2023/11/09 02:43:02;;;;;;;;;;;;;;;;;;5069136;28;4890;-70
2023/11/09 02:45:47;;;;;;;;;;;;;;;;;;5063707;28;5054;-69
2023/11/09 02:48:17;;;;;;;;;;;;;;;;;;5070015;28;5499;-71
2023/11/09 02:53:53;;;;;;;;;;;;;;;;;;5082899;28;4741;-70
2023/11/09 03:02:31;;;;;;;;;;;;;;;;;;5071124;28;4756;-71
2023/11/09 03:04:56;;;;;;;;;;;;;;;;;;5066156;28;5033;-69
2023/11/09 03:07:23;;;;;;;;;;;;;;;;;;5091503;28;4977;-70
2023/11/09 03:09:48;;;;;;;;;;;;;;;;;;5094214;28;4400;-70
2023/11/09 03:18:19;;;;;;;;;;;;;;;;;;5070662;28;4697;-70
2023/11/09 03:20:44;;;;;;;;;;;;;;;;;;5063717;28;2194;-68
2023/11/09 03:23:10;;;;;;;;;;;;;;;;;;5072702;28;5186;-69
2023/11/09 03:25:36;;;;;;;;;;;;;;;;;;5082771;28;6158;-70
2023/11/09 03:28:12;;;;;;;;;;;;;;;;;;5075648;28;4507;-70
2023/11/09 03:33:57;;;;;;;;;;;;;;;;;;5069817;28;5173;-69
2023/11/09 03:36:23;;;;;;;;;;;;;;;;;;5078481;28;5072;-70
2023/11/09 03:38:48;;;;;;;;;;;;;;;;;;5054170;28;1261;-70
2023/11/09 03:41:14;;;;;;;;;;;;;;;;;;5049936;28;4653;-72
2023/11/09 03:47:01;;;;;;;;;;;;;;;;;;5057068;28;4630;-70
2023/11/09 03:55:38;;;;;;;;;;;;;;;;;;5065317;28;4967;-70
2023/11/09 03:58:03;;;;;;;;;;;;;;;;;;5049820;28;4866;-68
2023/11/09 04:00:28;;;;;;;;;;;;;;;;;;5050710;28;5001;-70
2023/11/09 04:02:54;;;;;;;;;;;;;;;;;;5055890;28;1076;-70
2023/11/09 04:05:51;;;;;;;;;;;;;;;;;;5055371;28;4771;-70
2023/11/09 04:08:22;;;;;;;;;;;;;;;;;;5053773;28;5009;-69
2023/11/09 04:10:48;;;;;;;;;;;;;;;;;;5051123;28;5827;-67
2023/11/09 04:13:13;;;;;;;;;;;;;;;;;;5050858;28;5002;-68
2023/11/09 04:15:40;;;;;;;;;;;;;;;;;;5049270;28;5058;-70
2023/11/09 04:18:06;;;;;;;;;;;;;;;;;;5057645;28;4644;-69
2023/11/09 04:20:31;;;;;;;;;;;;;;;;;;5054459;28;1172;-70
2023/11/09 04:22:58;;;;;;;;;;;;;;;;;;5056022;28;4458;-71
2023/11/09 04:25:23;;;;;;;;;;;;;;;;;;5056495;28;4462;-70
2023/11/09 04:27:50;;;;;;;;;;;;;;;;;;5049717;28;5054;-71
2023/11/09 04:30:53;;;;;;;;;;;;;;;;;;5068171;28;4997;-71
2023/11/09 04:33:19;;;;;;;;;;;;;;;;;;5052424;28;4493;-70
2023/11/09 04:35:46;;;;;;;;;;;;;;;;;;5052619;28;1097;-70
2023/11/09 04:38:15;;;;;;;;;;;;;;;;;;5052670;28;4460;-70
2023/11/09 04:40:41;;;;;;;;;;;;;;;;;;5080840;28;5860;-68
2023/11/09 04:43:07;;;;;;;;;;;;;;;;;;5071634;28;4501;-69
2023/11/09 04:45:32;;;;;;;;;;;;;;;;;;5071789;28;4863;-70
2023/11/09 04:48:08;;;;;;;;;;;;;;;;;;5077924;28;4769;-69
2023/11/09 04:50:33;;;;;;;;;;;;;;;;;;5082684;28;1088;-71
2023/11/09 04:53:15;;;;;;;;;;;;;;;;;;5083295;28;5175;-72
2023/11/09 04:55:53;;;;;;;;;;;;;;;;;;5050118;28;4892;-69
2023/11/09 04:58:44;;;;;;;;;;;;;;;;;;5104368;28;5044;-70
2023/11/09 05:06:49;;;;;;;;;;;;;;;;;;5070239;28;5055;-71
2023/11/09 05:09:14;;;;;;;;;;;;;;;;;;5073142;28;5945;-71
2023/11/09 05:11:39;;;;;;;;;;;;;;;;;;5070298;28;1080;-71
2023/11/09 05:14:05;;;;;;;;;;;;;;;;;;5062022;28;4841;-71
2023/11/09 05:16:30;;;;;;;;;;;;;;;;;;5086477;28;4911;-71
2023/11/09 05:18:56;;;;;;;;;;;;;;;;;;5080989;28;4946;-70
2023/11/09 05:21:22;;;;;;;;;;;;;;;;;;5063763;28;5503;-71
2023/11/09 05:23:47;;;;;;;;;;;;;;;;;;5075536;28;1035;-71
2023/11/09 05:26:27;;;;;;;;;;;;;;;;;;5085690;28;4451;-71
2023/11/09 05:28:53;;;;;;;;;;;;;;;;;;5074330;28;5079;-70
2023/11/09 05:31:19;;;;;;;;;;;;;;;;;;5060842;28;4958;-72
2023/11/09 05:33:45;;;;;;;;;;;;;;;;;;5082296;28;4498;-71
2023/11/09 05:36:10;;;;;;;;;;;;;;;;;;5070552;28;5061;-70
2023/11/09 05:38:36;;;;;;;;;;;;;;;;;;5077941;28;1248;-71
2023/11/09 05:41:01;;;;;;;;;;;;;;;;;;5070582;28;4865;-71
2023/11/09 05:49:31;;;;;;;;;;;;;;;;;;5074623;28;4947;-61
2023/11/09 05:58:03;;;;;;;;;;;;;;;;;;5094755;28;4359;-58
2023/11/09 06:00:29;;;;;;;;;;;;;;;;;;5091521;28;4997;-58
2023/11/09 06:02:54;;;;;;;;;;;;;;;;;;5069482;28;1246;-59
2023/11/09 06:05:20;;;;;;;;;;;;;;;;;;5064628;28;5067;-58
2023/11/09 06:08:23;;;;;;;;;;;;;;;;;;5073774;28;5115;-58
2023/11/09 06:10:49;;;;;;;;;;;;;;;;;;5083351;28;5861;-58
2023/11/09 06:13:15;;;;;;;;;;;;;;;;;;5065739;28;4699;-61
2023/11/09 06:15:41;;;;;;;;;;;;;;;;;;5086053;28;5048;-61
2023/11/09 06:18:08;;;;;;;;;;;;;;;;;;5085508;28;4834;-63
2023/11/09 06:20:34;;;;;;;;;;;;;;;;;;5073588;28;1150;-62
2023/11/09 06:22:59;;;;;;;;;;;;;;;;;;5071182;28;4970;-62
2023/11/09 06:25:24;;;;;;;;;;;;;;;;;;5071731;28;5049;-62
2023/11/09 06:27:50;;;;;;;;;;;;;;;;;;5073794;28;4601;-59
2023/11/09 06:30:15;;;;;;;;;;;;;;;;;;5072357;28;4961;-60
2023/11/09 06:32:40;;;;;;;;;;;;;;;;;;5097000;28;1264;-59
2023/11/09 06:35:06;;;;;;;;;;;;;;;;;;5069887;28;4632;-58
2023/11/09 06:37:51;;;;;;;;;;;;;;;;;;5070172;28;4450;-58
2023/11/09 06:40:16;;;;;;;;;;;;;;;;;;5076479;28;5733;-59
2023/11/09 06:42:47;;;;;;;;;;;;;;;;;;5081211;28;5046;-58
2023/11/09 06:45:19;;;;;;;;;;;;;;;;;;5062087;28;5138;-59
2023/11/09 06:47:45;;;;;;;;;;;;;;;;;;5077657;28;1964;-58
2023/11/09 06:50:13;;;;;;;;;;;;;;;;;;5084222;28;5185;-59
2023/11/09 06:52:41;;;;;;;;;;;;;;;;;;5075396;28;4474;-58
2023/11/09 06:55:10;;;;;;;;;;;;;;;;;;5068339;28;5050;-58
2023/11/09 06:57:36;;;;;;;;;;;;;;;;;;5071903;28;5050;-58
2023/11/09 07:00:05;;;;;;;;;;;;;;;;;;5081745;28;5175;-58
2023/11/09 07:02:31;;;;;;;;;;;;;;;;;;5078691;28;2613;-58
2023/11/09 07:04:56;;;;;;;;;;;;;;;;;;5073519;28;4822;-58
2023/11/09 07:10:25;;;;;;;;;;;;;;;;;;5072021;28;5164;-59
2023/11/09 07:12:50;;;;;;;;;;;;;;;;;;5071158;28;5069;-59
2023/11/09 07:15:16;;;;;;;;;;;;;;;;;;5089903;28;4863;-60
2023/11/09 07:17:41;;;;;;;;;;;;;;;;;;5087478;28;1134;-60
2023/11/09 07:23:17;;;;;;;;;;;;;;;;;;5071308;28;4965;-61
2023/11/09 07:25:42;;;;;;;;;;;;;;;;;;5070217;28;4938;-61
2023/11/09 07:28:08;;;;;;;;;;;;;;;;;;5072228;28;4486;-62
2023/11/09 07:30:33;;;;;;;;;;;;;;;;;;5076615;28;4435;-60
2023/11/09 07:35:54;;;;;;;;;;;;;;;;;;5085794;28;1005;-62
2023/11/09 07:38:19;;;;;;;;;;;;;;;;;;5078313;28;4679;-62
2023/11/09 07:40:46;;;;;;;;;;;;;;;;;;5053036;28;5194;-61
2023/11/09 07:43:25;;;;;;;;;;;;;;;;;;5057391;28;5045;-60
2023/11/09 07:49:00;;;;;;;;;;;;;;;;;;5055459;28;1993;-60
2023/11/09 07:51:37;;;;;;;;;;;;;;;;;;5052809;28;5092;-62
2023/11/09 07:54:06;;;;;;;;;;;;;;;;;;5064660;28;5538;-60
2023/11/09 07:56:31;;;;;;;;;;;;;;;;;;5064881;28;1108;-59
2023/11/09 07:58:57;;;;;;;;;;;;;;;;;;5053149;28;4378;-60
2023/11/09 08:01:39;;;;;;;;;;;;;;;;;;5051453;28;4515;-60
2023/11/09 08:04:05;;;;;;;;;;;;;;;;;;5055816;28;5144;-60
2023/11/09 08:06:31;;;;;;;;;;;;;;;;;;5066854;28;5414;-61
2023/11/09 08:08:57;;;;;;;;;;;;;;;;;;5058041;28;1901;-59
2023/11/09 08:11:23;;;;;;;;;;;;;;;;;;5068888;28;5021;-60
2023/11/09 08:13:49;;;;;;;;;;;;;;;;;;5055563;28;5026;-61
2023/11/09 08:16:14;;;;;;;;;;;;;;;;;;5053685;28;4990;-62
2023/11/09 08:18:40;;;;;;;;;;;;;;;;;;5061082;28;4555;-61
2023/11/09 08:21:05;;;;;;;;;;;;;;;;;;5053507;28;5186;-61
2023/11/09 08:23:49;;;;;;;;;;;;;;;;;;5048530;28;1099;-62
2023/11/09 08:26:14;;;;;;;;;;;;;;;;;;5062953;28;4622;-63
2023/11/09 08:28:40;;;;;;;;;;;;;;;;;;5089559;28;4993;-64
2023/11/09 08:31:33;;;;;;;;;;;;;;;;;;5062893;28;5019;-66
2023/11/09 08:33:59;;;;;;;;;;;;;;;;;;5063739;28;5023;-70
2023/11/09 08:36:24;;;;;;;;;;;;;;;;;;5063052;28;5380;-67
2023/11/09 08:38:50;;;;;;;;;;;;;;;;;;5052289;28;2499;-67
2023/11/09 08:41:15;;;;;;;;;;;;;;;;;;5083250;28;5046;-66
2023/11/09 08:43:40;;;;;;;;;;;;;;;;;;5075975;28;4459;-67
2023/11/09 08:48:57;;;;;;;;;;;;;;;;;;5069968;28;5092;-66
2023/11/09 08:51:22;;;;;;;;;;;;;;;;;;5070786;28;5127;-66
2023/11/09 08:53:47;;;;;;;;;;;;;;;;;;5068354;28;1667;-67
2023/11/09 08:59:15;;;;;;;;;;;;;;;;;;5073239;28;5063;-64
2023/11/09 09:01:40;;;;;;;;;;;;;;;;;;5070488;28;5011;-65
2023/11/09 09:04:06;;;;;;;;;;;;;;;;;;5072601;28;5318;-67
2023/11/09 09:06:31;;;;;;;;;;;;;;;;;;5071865;28;4695;-66
2023/11/09 09:08:57;;;;;;;;;;;;;;;;;;5075993;28;1906;-65
2023/11/09 09:11:22;;;;;;;;;;;;;;;;;;5079501;28;5212;-68
2023/11/09 09:13:47;;;;;;;;;;;;;;;;;;5077513;28;4984;-58
2023/11/09 09:16:15;;;;;;;;;;;;;;;;;;5095694;28;5175;-59
2023/11/09 09:18:41;;;;;;;;;;;;;;;;;;5081068;28;4829;-63
2023/11/09 09:21:08;;;;;;;;;;;;;;;;;;5074183;28;4970;-64
2023/11/09 09:23:34;;;;;;;;;;;;;;;;;;5075565;28;1039;-64
2023/11/09 09:26:00;;;;;;;;;;;;;;;;;;5074569;28;4611;-64
2023/11/09 09:28:38;;;;;;;;;;;;;;;;;;5052751;28;5122;-63
2023/11/09 09:31:03;;;;;;;;;;;;;;;;;;5057337;28;4495;-64
2023/11/09 09:36:33;;;;;;;;;;;;;;;;;;5089776;28;5149;-64
2023/11/09 09:39:07;;;;;;;;;;;;;;;;;;5093004;28;4850;-63
2023/11/09 09:41:40;;;;;;;;;;;;;;;;;;5081109;28;1268;-63
2023/11/09 09:44:08;;;;;;;;;;;;;;;;;;5090517;28;4812;-63
2023/11/09 09:46:42;;;;;;;;;;;;;;;;;;5098540;28;5094;-63
2023/11/09 09:49:08;;;;;;;;;;;;;;;;;;5071798;28;5173;-63
2023/11/09 09:51:35;;;;;;;;;;;;;;;;;;5079449;28;4531;-63
2023/11/09 09:54:01;;;;;;;;;;;;;;;;;;5070107;28;4560;-62
2023/11/09 09:56:26;;;;;;;;;;;;;;;;;;5085888;28;1001;-62
2023/11/09 09:58:52;;;;;;;;;;;;;;;;;;5099310;28;4433;-63
2023/11/09 10:01:19;;;;;;;;;;;;;;;;;;5070772;28;4977;-62
2023/11/09 10:06:48;;;;;;;;;;;;;;;;;;5074214;28;4984;-63
2023/11/09 10:09:14;;;;;;;;;;;;;;;;;;5076512;28;5171;-63
2023/11/09 10:11:40;;;;;;;;;;;;;;;;;;5066291;28;1432;-72
2023/11/09 10:14:06;;;;;;;;;;;;;;;;;;5067179;28;4983;-69
2023/11/09 10:16:32;;;;;;;;;;;;;;;;;;5067365;28;4897;-58
2023/11/09 10:19:02;;;;;;;;;;;;;;;;;;5072940;28;5076;-59
2023/11/09 10:21:30;;;;;;;;;;;;;;;;;;5044175;28;5099;-60
2023/11/09 10:23:55;;;;;;;;;;;;;;;;;;5047534;28;3319;-60
2023/11/09 10:26:21;;;;;;;;;;;;;;;;;;5065927;28;4723;-57
2023/11/09 10:28:51;;;;;;;;;;;;;;;;;;5070936;28;4932;-58
2023/11/09 10:31:39;;;;;;;;;;;;;;;;;;5056966;28;5104;-58
2023/11/09 10:34:04;;;;;;;;;;;;;;;;;;5069700;28;5504;-58
2023/11/09 10:36:29;;;;;;;;;;;;;;;;;;5065147;28;5017;-58
2023/11/09 10:38:55;;;;;;;;;;;;;;;;;;5077016;28;3153;-57
2023/11/09 10:41:21;;;;;;;;;;;;;;;;;;5089752;28;4940;-58
2023/11/09 10:43:47;;;;;;;;;;;;;;;;;;5063259;28;4532;-58
2023/11/09 10:46:16;;;;;;;;;;;;;;;;;;5048885;28;5192;-58
2023/11/09 10:48:46;;;;;;;;;;;;;;;;;;5054019;28;5103;-58
2023/11/09 10:51:11;;;;;;;;;;;;;;;;;;5057056;28;4665;-57
2023/11/09 10:53:37;;;;;;;;;;;;;;;;;;5070250;28;1653;-58
2023/11/09 10:56:21;;;;;;;;;;;;;;;;;;5068292;28;4493;-58
2023/11/09 10:58:47;;;;;;;;;;;;;;;;;;5068635;28;4912;-58
2023/11/09 11:01:17;;;;;;;;;;;;;;;;;;5073998;28;5086;-57
2023/11/09 11:03:45;;;;;;;;;;;;;;;;;;5069482;28;4553;-58
2023/11/09 11:06:16;;;;;;;;;;;;;;;;;;5085280;28;5041;-58
2023/11/09 11:08:42;;;;;;;;;;;;;;;;;;5056999;28;1906;-58
2023/11/09 11:11:17;;;;;;;;;;;;;;;;;;5074984;28;4450;-60
2023/11/09 11:16:57;;;;;;;;;;;;;;;;;;5076229;28;5043;-59
2023/11/09 11:19:33;;;;;;;;;;;;;;;;;;5085264;28;4954;-60
2023/11/09 11:21:58;;;;;;;;;;;;;;;;;;5065542;28;5059;-78
2023/11/09 11:36:50;;;;;;;;;;;;;;;;;;5086323;28;4898;-71
2023/11/09 11:39:54;;;;;;;;;;;;;;;;;;5075217;28;4655;-62
2023/11/09 11:42:27;;;;;;;;;;;;;;;;;;5076600;28;5030;-64
2023/11/09 11:44:56;;;;;;;;;;;;;;;;;;5074474;28;1137;-63
2023/11/09 11:47:22;;;;;;;;;;;;;;;;;;5075622;28;5001;-64
2023/11/09 11:53:20;;;;;;;;;;;;;;;;;;5099236;28;5015;-64
2023/11/09 11:58:52;;;;;;;;;;;;;;;;;;5075909;28;5417;-60
2023/11/09 12:01:20;;;;;;;;;;;;;;;;;;5057184;28;5092;-60
2023/11/09 12:03:51;;;;;;;;;;;;;;;;;;5079225;28;4442;-58
2023/11/09 12:09:39;;;;;;;;;;;;;;;;;;5071804;28;4524;-61
2023/11/09 12:12:05;;;;;;;;;;;;;;;;;;5076862;28;5571;-61
2023/11/09 12:14:30;;;;;;;;;;;;;;;;;;5037457;28;1484;-60
2023/11/09 12:20:17;;;;;;;;;;;;;;;;;;5072176;28;5111;-60
2023/11/09 12:22:47;;;;;;;;;;;;;;;;;;5083912;28;4961;-57
2023/11/09 12:25:13;;;;;;;;;;;;;;;;;;5076185;28;5019;-58
2023/11/09 12:27:38;;;;;;;;;;;;;;;;;;5070188;28;4843;-56
2023/11/09 12:33:40;;;;;;;;;;;;;;;;;;5073351;28;5081;-56
2023/11/09 12:36:06;;;;;;;;;;;;;;;;;;5074185;28;5022;-57
2023/11/09 12:38:34;;;;;;;;;;;;;;;;;;5076464;28;1201;-57
2023/11/09 12:44:30;;;;;;;;;;;;;;;;;;5068177;28;4492;-57
2023/11/09 12:46:55;;;;;;;;;;;;;;;;;;5052872;28;4509;-57
2023/11/09 12:49:25;;;;;;;;;;;;;;;;;;5073529;28;5143;-56
2023/11/09 12:55:07;;;;;;;;;;;;;;;;;;5074087;28;4910;-56
2023/11/09 13:00:38;;;;;;;;;;;;;;;;;;5079521;28;4497;-57
2023/11/09 13:03:07;;;;;;;;;;;;;;;;;;5070024;28;4675;-57
2023/11/09 13:05:38;;;;;;;;;;;;;;;;;;5072528;28;1196;-57
2023/11/09 13:11:46;;;;;;;;;;;;;;;;;;5076069;28;5171;-56
2023/11/09 13:14:17;;;;;;;;;;;;;;;;;;5073354;28;5065;-57
2023/11/09 13:19:51;;;;;;;;;;;;;;;;;;5075582;28;4437;-57
2023/11/09 13:22:17;;;;;;;;;;;;;;;;;;5079831;28;5059;-57
2023/11/09 13:24:54;;;;;;;;;;;;;;;;;;5072313;28;5127;-57
2023/11/09 13:27:35;;;;;;;;;;;;;;;;;;5063969;28;4619;-57
2023/11/09 13:30:33;;;;;;;;;;;;;;;;;;5074204;28;4387;-57
2023/11/09 13:36:04;;;;;;;;;;;;;;;;;;5075201;28;4632;-56
2023/11/09 13:38:43;;;;;;;;;;;;;;;;;;5073679;28;973;-56
2023/11/09 13:47:25;;;;;;;;;;;;;;;;;;5059489;28;5083;-56
2023/11/09 13:49:55;;;;;;;;;;;;;;;;;;5054252;28;4452;-56
2023/11/09 13:52:38;;;;;;;;;;;;;;;;;;5040116;28;4631;-57
2023/11/09 13:55:16;;;;;;;;;;;;;;;;;;5034511;28;5461;-57
2023/11/09 13:57:45;;;;;;;;;;;;;;;;;;5028832;28;4490;-56
2023/11/09 14:00:23;;;;;;;;;;;;;;;;;;5032401;28;4482;-56
2023/11/09 14:02:49;;;;;;;;;;;;;;;;;;5030150;28;1181;-56
2023/11/09 14:05:15;;;;;;;;;;;;;;;;;;5042049;28;4419;-56
2023/11/09 14:07:41;;;;;;;;;;;;;;;;;;5062038;28;5034;-57
2023/11/09 14:10:16;;;;;;;;;;;;;;;;;;5037162;28;5047;-57
2023/11/09 14:21:50;;;;;;;;;;;;;;;;;;5031528;28;5042;-56
2023/11/09 14:24:19;;;;;;;;;;;;;;;;;;5054085;28;4491;-56
2023/11/09 14:26:46;;;;;;;;;;;;;;;;;;5044511;28;1251;-57
2023/11/09 14:32:19;;;;;;;;;;;;;;;;;;5028133;28;5124;-58
2023/11/09 14:34:47;;;;;;;;;;;;;;;;;;5028362;28;4979;-58
2023/11/09 14:37:15;;;;;;;;;;;;;;;;;;5036305;28;4504;-57
2023/11/09 14:40:06;;;;;;;;;;;;;;;;;;5042113;28;4951;-57
2023/11/09 14:42:37;;;;;;;;;;;;;;;;;;5037437;28;4763;-56
2023/11/09 14:45:42;;;;;;;;;;;;;;;;;;5034223;28;5050;-56
2023/11/09 14:48:15;;;;;;;;;;;;;;;;;;5034449;28;5052;-56
2023/11/09 15:00:07;;;;;;;;;;;;;;;;;;5035686;28;4739;-57
2023/11/09 15:02:56;;;;;;;;;;;;;;;;;;5031013;28;5165;-57
2023/11/09 15:08:37;;;;;;;;;;;;;;;;;;5030863;28;4773;-57
2023/11/09 15:14:13;;;;;;;;;;;;;;;;;;5028380;28;4632;-56
2023/11/09 15:17:01;;;;;;;;;;;;;;;;;;5029346;28;5029;-57
2023/11/09 15:22:29;;;;;;;;;;;;;;;;;;5032127;28;5027;-57
2023/11/09 15:24:54;;;;;;;;;;;;;;;;;;5030102;28;5017;-57
2023/11/09 15:27:20;;;;;;;;;;;;;;;;;;5035207;28;5075;-57
2023/11/09 15:29:45;;;;;;;;;;;;;;;;;;5073928;28;1914;-57
2023/11/09 15:32:17;;;;;;;;;;;;;;;;;;5069221;28;5077;-56
2023/11/09 15:34:52;;;;;;;;;;;;;;;;;;5029230;28;5061;-57
2023/11/09 15:37:19;;;;;;;;;;;;;;;;;;5027681;28;5037;-57
2023/11/09 15:45:51;;;;;;;;;;;;;;;;;;5036615;28;5055;-56
2023/11/09 15:48:21;;;;;;;;;;;;;;;;;;5071547;28;5389;-56
2023/11/09 15:50:49;;;;;;;;;;;;;;;;;;5075148;28;976;-57
2023/11/09 15:53:15;;;;;;;;;;;;;;;;;;5074806;28;5012;-57
2023/11/09 15:55:40;;;;;;;;;;;;;;;;;;5073541;28;5052;-57
2023/11/09 15:58:41;;;;;;;;;;;;;;;;;;5087920;28;4634;-57
2023/11/09 16:01:36;;;;;;;;;;;;;;;;;;5079673;28;5118;-57
2023/11/09 16:04:02;;;;;;;;;;;;;;;;;;5073263;28;4952;-57
2023/11/09 16:06:27;;;;;;;;;;;;;;;;;;5075285;28;4634;-57
2023/11/09 16:08:52;;;;;;;;;;;;;;;;;;5071201;28;1953;-57
2023/11/09 16:11:20;;;;;;;;;;;;;;;;;;5074336;28;4950;-57
2023/11/09 16:19:51;;;;;;;;;;;;;;;;;;5073643;28;5265;-57
2023/11/09 16:22:17;;;;;;;;;;;;;;;;;;5071009;28;4530;-57
2023/11/09 16:24:46;;;;;;;;;;;;;;;;;;5080219;28;5008;-57
2023/11/09 16:36:19;;;;;;;;;;;;;;;;;;5069458;28;5045;-57
2023/11/09 16:38:45;;;;;;;;;;;;;;;;;;5074788;28;1030;-56
2023/11/09 16:41:11;;;;;;;;;;;;;;;;;;5058162;28;4992;-57
2023/11/09 16:43:38;;;;;;;;;;;;;;;;;;5076394;28;4936;-57
2023/11/09 16:46:05;;;;;;;;;;;;;;;;;;5078833;28;4626;-57
2023/11/09 16:48:33;;;;;;;;;;;;;;;;;;5055513;28;5122;-57
2023/11/09 16:50:58;;;;;;;;;;;;;;;;;;5071973;28;5116;-56
2023/11/09 16:53:24;;;;;;;;;;;;;;;;;;5078410;28;1073;-56
2023/11/09 16:55:49;;;;;;;;;;;;;;;;;;5072586;28;5017;-56
2023/11/09 16:58:14;;;;;;;;;;;;;;;;;;5069184;28;4588;-56
2023/11/09 17:01:18;;;;;;;;;;;;;;;;;;5072138;28;5559;-56
2023/11/09 17:03:44;;;;;;;;;;;;;;;;;;5055923;28;5072;-56
2023/11/09 17:06:09;;;;;;;;;;;;;;;;;;5070660;28;4610;-56
2023/11/09 17:08:37;;;;;;;;;;;;;;;;;;5055503;28;1983;-56
2023/11/09 17:11:03;;;;;;;;;;;;;;;;;;5053389;28;4587;-57
2023/11/09 17:13:28;;;;;;;;;;;;;;;;;;5076785;28;4624;-56
2023/11/09 17:15:53;;;;;;;;;;;;;;;;;;5056324;28;4588;-57
2023/11/09 17:18:19;;;;;;;;;;;;;;;;;;5095683;28;5027;-56
2023/11/09 17:20:45;;;;;;;;;;;;;;;;;;5096055;28;1080;-56
2023/11/09 17:23:10;;;;;;;;;;;;;;;;;;5085480;28;4839;-56
2023/11/09 17:25:36;;;;;;;;;;;;;;;;;;5075463;28;4798;-56
2023/11/09 17:28:02;;;;;;;;;;;;;;;;;;5073561;28;4475;-56
2023/11/09 17:33:31;;;;;;;;;;;;;;;;;;5073042;28;4653;-57
2023/11/09 17:39:24;;;;;;;;;;;;;;;;;;5071328;28;4949;-56
2023/11/09 17:41:58;;;;;;;;;;;;;;;;;;5081145;28;945;-56
2023/11/09 17:44:47;;;;;;;;;;;;;;;;;;5072805;28;5245;-56
2023/11/09 17:47:13;;;;;;;;;;;;;;;;;;5071848;28;5091;-56
2023/11/09 17:49:38;;;;;;;;;;;;;;;;;;5069964;28;4648;-56
2023/11/09 17:52:03;;;;;;;;;;;;;;;;;;5074649;28;4621;-57
2023/11/09 18:00:34;;;;;;;;;;;;;;;;;;5093421;28;4637;-56
2023/11/09 18:03:29;;;;;;;;;;;;;;;;;;5072777;28;4856;-55
2023/11/09 18:06:29;;;;;;;;;;;;;;;;;;5072590;28;1087;-56
2023/11/09 18:08:58;;;;;;;;;;;;;;;;;;5072181;28;4581;-57
2023/11/09 18:11:27;;;;;;;;;;;;;;;;;;5076108;28;1052;-56
2023/11/09 18:13:52;;;;;;;;;;;;;;;;;;5070863;28;4415;-57
2023/11/09 18:16:18;;;;;;;;;;;;;;;;;;5056473;28;4558;-56
2023/11/09 18:22:09;;;;;;;;;;;;;;;;;;5083207;28;4473;-56
2023/11/09 18:24:35;;;;;;;;;;;;;;;;;;5071230;28;5151;-56
2023/11/09 18:27:00;;;;;;;;;;;;;;;;;;5070728;28;5006;-55
2023/11/09 18:29:26;;;;;;;;;;;;;;;;;;5071146;28;1906;-56
2023/11/09 18:31:51;;;;;;;;;;;;;;;;;;5051597;28;4539;-57
2023/11/09 18:34:17;;;;;;;;;;;;;;;;;;5074972;28;4434;-56
2023/11/09 18:36:42;;;;;;;;;;;;;;;;;;5071405;28;4628;-57
2023/11/09 18:39:07;;;;;;;;;;;;;;;;;;5053453;28;5067;-57
2023/11/09 18:41:33;;;;;;;;;;;;;;;;;;5074633;28;1060;-57
2023/11/09 18:44:00;;;;;;;;;;;;;;;;;;5073921;28;5027;-57
2023/11/09 18:50:33;;;;;;;;;;;;;;;;;;5069125;28;4992;-56
2023/11/09 18:53:09;;;;;;;;;;;;;;;;;;5093427;28;4935;-56
2023/11/09 18:55:35;;;;;;;;;;;;;;;;;;5059577;28;4998;-56
2023/11/09 18:58:01;;;;;;;;;;;;;;;;;;5073793;28;4467;-55
2023/11/09 19:00:27;;;;;;;;;;;;;;;;;;5093404;28;4555;-56
2023/11/09 19:02:53;;;;;;;;;;;;;;;;;;5094093;28;1130;-56
2023/11/09 19:05:19;;;;;;;;;;;;;;;;;;5093579;28;4360;-57
2023/11/09 19:07:44;;;;;;;;;;;;;;;;;;5083812;28;5108;-57
2023/11/09 19:10:10;;;;;;;;;;;;;;;;;;5073466;28;4812;-57
2023/11/09 19:12:38;;;;;;;;;;;;;;;;;;5073646;28;5004;-56
2023/11/09 19:18:06;;;;;;;;;;;;;;;;;;5094004;28;4336;-56
2023/11/09 19:20:32;;;;;;;;;;;;;;;;;;5076270;28;1416;-56
2023/11/09 19:22:57;;;;;;;;;;;;;;;;;;5077003;28;4926;-56
2023/11/09 19:25:23;;;;;;;;;;;;;;;;;;5079342;28;5161;-56
2023/11/09 19:27:48;;;;;;;;;;;;;;;;;;5083879;28;5136;-56
2023/11/09 19:30:15;;;;;;;;;;;;;;;;;;5077906;28;5230;-56
2023/11/09 19:32:40;;;;;;;;;;;;;;;;;;5075718;28;3110;-57
2023/11/09 19:35:27;;;;;;;;;;;;;;;;;;5091123;28;5026;-57
2023/11/09 19:37:53;;;;;;;;;;;;;;;;;;5064605;28;5072;-57
2023/11/09 19:40:24;;;;;;;;;;;;;;;;;;5086585;28;5190;-57
2023/11/09 19:42:51;;;;;;;;;;;;;;;;;;5088221;28;5049;-56
2023/11/09 19:45:32;;;;;;;;;;;;;;;;;;5096158;28;5051;-56
2023/11/09 19:48:09;;;;;;;;;;;;;;;;;;5077816;28;1925;-56
2023/11/09 19:51:01;;;;;;;;;;;;;;;;;;5076452;28;4645;-57
2023/11/09 19:53:43;;;;;;;;;;;;;;;;;;5076295;28;5211;-56
2023/11/09 19:56:09;;;;;;;;;;;;;;;;;;5078851;28;5080;-57
2023/11/09 19:58:34;;;;;;;;;;;;;;;;;;5088812;28;4643;-56
2023/11/09 20:00:59;;;;;;;;;;;;;;;;;;5079717;28;4463;-56
2023/11/09 20:03:25;;;;;;;;;;;;;;;;;;5071533;28;4885;-56
2023/11/09 20:05:50;;;;;;;;;;;;;;;;;;5077264;28;1075;-60
2023/11/09 20:15:24;;;;;;;;;;;;;;;;;;5084578;28;4702;-56
2023/11/09 20:18:24;;;;;;;;;;;;;;;;;;5072375;28;5304;-56
2023/11/09 20:20:56;;;;;;;;;;;;;;;;;;5072301;28;4609;-58
2023/11/09 20:23:22;;;;;;;;;;;;;;;;;;5071312;28;4970;-55
2023/11/09 20:25:48;;;;;;;;;;;;;;;;;;5082210;28;5139;-57
2023/11/09 20:28:13;;;;;;;;;;;;;;;;;;5068738;28;4517;-57
2023/11/09 20:30:38;;;;;;;;;;;;;;;;;;5090555;28;5165;-57
2023/11/09 20:33:04;;;;;;;;;;;;;;;;;;5056490;28;4961;-58
2023/11/09 20:35:29;;;;;;;;;;;;;;;;;;5073837;28;2844;-58
2023/11/09 20:37:55;;;;;;;;;;;;;;;;;;5067082;28;5086;-59
2023/11/09 20:40:20;;;;;;;;;;;;;;;;;;5056121;28;5092;-55
2023/11/09 20:42:46;;;;;;;;;;;;;;;;;;5080448;28;4729;-57
2023/11/09 20:45:25;;;;;;;;;;;;;;;;;;5085903;28;4570;-56
2023/11/09 20:47:51;;;;;;;;;;;;;;;;;;5073270;28;3332;-57
2023/11/09 20:50:16;;;;;;;;;;;;;;;;;;5079184;28;4815;-56
2023/11/09 20:52:52;;;;;;;;;;;;;;;;;;5052521;28;5153;-56
2023/11/09 20:55:18;;;;;;;;;;;;;;;;;;5063113;28;5102;-56
2023/11/09 20:57:53;;;;;;;;;;;;;;;;;;5057273;28;5168;-56
2023/11/09 21:00:28;;;;;;;;;;;;;;;;;;5056490;28;5220;-56